A- A+ FrançaisEnglishEspañol中国

le plus proche LFBT Tarbes-Lourdes-PyrénéesLFOT Tours-St-Symphorien LFQY Saverne-Steinbourg LFPV Villacoublay-Velizy

manche à air

La météo aéronautique pour les pilotes, la préparation du vol avec les METAR (METeorological Aerodrome Report, message d'observation des conditions météorologiques pour l'aviation) et Les TAF (Terminal Aerodrome Forecast : message de prévision à court terme des conditions météorologiques pour l'aviation). Et les autres ressources comme les VAC (Visual Approch Chart) et les NOTAM (Notice To Airman) pour préprer les vols.

Aéroport Ech-Cheliff (Algérie) / OACI DAOI/ IATA CFK

L'altitude de l'aéroport Ech-Cheliff est de 141 m=463 ft. Il est situé à proximité de (Algérie). La météo générale à 5 jours est disponible pour Chlef situé à 5.3 km.

METAR de l'aéroport Ech-Cheliff - DAOI

DAOI 022200Z 00000KT CAVOK 09/02 Q1031

Décodage du METAR de l'aéroport Ech-Cheliff (DZ)

METAR émis par DAOI le jeudi 2 janvier 2020 à 22:00 heure TU. Attention ce METAR est obsolète car il a été émis il y a 5 heure et 14 minutes.

La visibilité est de supérieure à 10 km=supérieure à 6.2 sm.

La température est de 9°C=48 °F et le point rosée est de 2°C=36 °F . Ce qui correspond à 62% d'humidité relative.

Le QNH est de 1031 hPa=30.45 inHg

Vent de 0 kt=0 km/h, orienté à 0°.

Pas de nuages.

TAF de l'aéroport Ech-Cheliff - DAOI

DAOI 021700Z 0218/0318 VRB02KT CAVOK BECMG 0309/0312 34010KT

DAOI 021700Z 0218/0318 VRB02KT visibilité supérieure à 10km, aucun nuage à une hauteur inférieure à 5000 ft ou sous l'altitude minimale de secteur et aucun cumulonimbus ou cumulus bourgeonnant, quelle que soit leur altitude devenant 0309/0312 34010KT

Aéroport à proximité de Ech-Cheliff

Météo générale à 5 jours à Chlef (5.3 km)DAAZ Aéroport Relizane (82 km)DAOB Aéroport Tiaret (98 km)DAAB Aéroport Blida (137 km)DAAK Aéroport Boufarik (143 km)DAOV Aéroport Ghriss (155 km)DAAX Aéroport Cheraga (156 km)

Vue aérienne de l'aéroport Ech-Cheliff

NOTAM de l'aéroport Ech-Cheliff

Les NOTAM sont fournis sans aucune garantie de leur actualité. Le pilote est le seul responsable de la vérification de sa validité avant de l'utiliser opérationnellement pour préparer un vol ou l'utiliser lors de sa navigation.

Pas de NOTAM

Sources des données